Time;durP1;ratioP1;P1;durP2;ratioP2;P2;SDS_P1;SDS_P2;PMS_P1;PMS_P2;Temp;Humidity;BMP_temperature;BMP_pressure;BME280_temperature;BME280_humidity;BME280_pressure;Samples;Min_cycle;Max_cycle;Signal;HPM_P1;HPM_P2
2021/03/13 00:02:05;;;;;;;47.43;33.17;;;;;;;5.34;59.97;99608.59;5054968;28;20036;-81
2021/03/13 00:04:30;;;;;;;55.50;37.17;;;;;;;5.00;59.62;99548.06;5058444;28;20075;-83
2021/03/13 00:06:56;;;;;;;64.97;35.43;;;;;;;5.47;60.07;99628.38;5060562;28;20378;-80
2021/03/13 00:09:21;;;;;;;48.67;34.37;;;;;;;5.61;59.51;99623.50;5054952;28;20108;-80
2021/03/13 00:11:47;;;;;;;48.07;34.23;;;;;;;5.91;59.67;99669.59;5037208;28;20016;-82
2021/03/13 00:14:12;;;;;;;41.67;29.87;;;;;;;5.67;59.68;99627.34;5054745;28;20394;-80
2021/03/13 00:16:37;;;;;;;44.97;29.33;;;;;;;6.12;60.14;99715.75;5055006;28;20411;-80
2021/03/13 00:19:03;;;;;;;43.93;30.17;;;;;;;5.92;60.05;99688.75;5054755;28;20033;-81
2021/03/13 00:21:28;;;;;;;47.50;30.97;;;;;;;6.10;60.63;99730.78;5038906;28;20351;-80
2021/03/13 00:23:55;;;;;;;40.57;29.43;;;;;;;5.52;60.54;99618.31;5076723;28;20044;-80
2021/03/13 00:26:20;;;;;;;45.03;30.87;;;;;;;5.89;60.43;99675.91;5055681;28;20029;-80
2021/03/13 00:28:46;;;;;;;45.43;30.53;;;;;;;5.93;60.31;99682.56;5055894;28;20112;-80
2021/03/13 00:31:11;;;;;;;46.30;33.77;;;;;;;6.15;60.52;99721.50;5057825;28;20025;-78
2021/03/13 00:33:37;;;;;;;57.03;36.63;;;;;;;6.14;60.53;99726.91;5037988;28;20116;-79
2021/03/13 00:36:03;;;;;;;53.30;38.13;;;;;;;6.09;60.56;99729.13;5054808;28;20021;-79
2021/03/13 00:38:29;;;;;;;58.07;37.07;;;;;;;5.58;60.61;99639.50;5054976;28;20435;-79
2021/03/13 00:40:54;;;;;;;53.67;36.87;;;;;;;6.05;60.60;99705.84;5054837;28;20419;-78
2021/03/13 00:43:20;;;;;;;55.43;36.80;;;;;;;6.03;60.62;99704.31;5054297;28;20111;-80
2021/03/13 00:45:47;;;;;;;59.03;39.10;;;;;;;5.94;60.46;99686.81;5054495;28;20059;-80
2021/03/13 00:48:13;;;;;;;52.23;35.63;;;;;;;5.98;60.48;99672.50;5054522;28;20025;-80
2021/03/13 00:50:40;;;;;;;59.17;40.27;;;;;;;5.79;60.35;99639.28;5054827;28;20090;-78
2021/03/13 00:53:07;;;;;;;58.80;39.40;;;;;;;5.91;60.41;99647.81;5054484;28;20033;-80
2021/03/13 00:55:33;;;;;;;58.60;39.17;;;;;;;5.43;60.47;99559.78;5053400;28;20052;-79
2021/03/13 00:57:58;;;;;;;64.20;40.20;;;;;;;5.74;60.58;99604.84;5054154;28;20067;-78
2021/03/13 01:00:25;;;;;;;65.67;42.60;;;;;;;5.75;60.78;99606.47;5036784;28;20025;-79
2021/03/13 01:02:51;;;;;;;59.10;39.37;;;;;;;6.05;60.61;99655.22;5036949;28;20029;-78
2021/03/13 01:05:17;;;;;;;61.40;41.37;;;;;;;5.99;60.92;99640.06;5036564;28;20091;-80
2021/03/13 01:07:43;;;;;;;57.87;38.47;;;;;;;5.16;60.90;99544.00;5054607;28;20036;-77
2021/03/13 01:10:14;;;;;;;61.90;40.13;;;;;;;5.96;60.88;99646.44;5054198;28;20028;-78
2021/03/13 01:12:40;;;;;;;58.53;38.23;;;;;;;5.78;61.14;99610.59;5058201;28;20108;-78
2021/03/13 01:15:10;;;;;;;58.53;40.27;;;;;;;5.94;61.48;99645.72;5040328;28;20021;-80
2021/03/13 01:17:35;;;;;;;62.17;39.80;;;;;;;5.69;61.19;99602.66;5058087;28;20021;-79
2021/03/13 01:20:01;;;;;;;63.93;41.33;;;;;;;5.42;61.01;99537.19;5040534;28;20029;-79
2021/03/13 01:22:26;;;;;;;56.83;38.73;;;;;;;5.47;61.17;99540.19;5040407;28;20052;-78
2021/03/13 01:24:52;;;;;;;56.27;38.03;;;;;;;5.96;61.09;99604.50;5058078;28;20028;-79
2021/03/13 01:27:17;;;;;;;57.10;37.40;;;;;;;5.96;61.14;99611.53;5057923;28;20067;-77
2021/03/13 01:29:43;;;;;;;57.57;36.67;;;;;;;5.33;61.15;99511.88;5046030;28;20029;-78
2021/03/13 01:32:08;;;;;;;53.10;37.37;;;;;;;5.78;61.15;99582.63;5058454;28;20029;-79
2021/03/13 01:34:33;;;;;;;57.90;38.23;;;;;;;5.67;61.30;99575.78;5057849;28;20064;-78
2021/03/13 01:36:59;;;;;;;60.63;44.10;;;;;;;5.99;61.01;99616.47;5040135;28;20032;-78
2021/03/13 01:39:25;;;;;;;60.70;41.77;;;;;;;5.88;61.26;99611.38;5040023;28;20024;-78
2021/03/13 01:41:50;;;;;;;64.37;44.00;;;;;;;5.89;61.06;99631.38;5057691;28;20036;-78
2021/03/13 01:44:16;;;;;;;53.20;37.97;;;;;;;5.93;61.07;99617.03;5057636;28;20028;-78
2021/03/13 01:46:42;;;;;;;57.43;36.60;;;;;;;5.42;60.93;99534.56;5057341;28;20443;-78
2021/03/13 01:49:17;;;;;;;55.53;35.30;;;;;;;5.77;60.81;99614.19;5039838;28;20029;-78
2021/03/13 01:51:43;;;;;;;54.00;34.20;;;;;;;5.42;61.10;99552.88;5057895;28;20033;-79
2021/03/13 01:54:08;;;;;;;54.10;37.57;;;;;;;5.04;61.03;99514.56;5058246;28;20036;-78
2021/03/13 01:56:36;;;;;;;54.50;36.77;;;;;;;5.37;61.18;99558.56;5059380;28;20104;-78
2021/03/13 01:59:02;;;;;;;54.83;36.80;;;;;;;5.47;60.99;99574.22;5059297;28;20103;-80
2021/03/13 02:01:27;;;;;;;51.33;35.33;;;;;;;5.67;61.25;99611.63;5059833;28;20448;-79
2021/03/13 02:03:53;;;;;;;51.43;35.77;;;;;;;5.54;61.13;99585.78;5065448;22;20080;-79
2021/03/13 02:06:18;;;;;;;57.57;37.23;;;;;;;5.61;60.81;99607.78;5058766;28;20056;-79
2021/03/13 02:08:43;;;;;;;60.77;38.37;;;;;;;5.69;61.27;99609.69;5059763;28;20040;-80
2021/03/13 02:11:14;;;;;;;62.73;40.73;;;;;;;5.07;61.21;99515.13;5061133;28;20036;-79
2021/03/13 02:13:54;;;;;;;56.67;39.87;;;;;;;5.26;61.27;99534.34;5063587;28;20055;-80
2021/03/13 02:16:51;;;;;;;55.73;36.33;;;;;;;5.25;60.86;99522.25;5060027;28;20036;-80
2021/03/13 02:19:56;;;;;;;58.57;37.20;;;;;;;5.70;61.23;99608.72;5057850;28;20453;-79
2021/03/13 02:22:24;;;;;;;56.27;37.13;;;;;;;5.70;60.99;99614.78;5054944;28;20033;-79
2021/03/13 02:25:12;;;;;;;53.63;37.70;;;;;;;5.65;61.07;99605.69;5058216;28;20052;-80
2021/03/13 02:27:52;;;;;;;55.17;36.77;;;;;;;5.53;61.62;99599.84;5062655;28;20033;-78
2021/03/13 02:30:24;;;;;;;52.97;36.03;;;;;;;4.94;61.30;99509.38;5045161;28;20502;-80
2021/03/13 02:33:04;;;;;;;50.47;34.87;;;;;;;5.10;61.18;99527.91;5063174;28;20034;-80
2021/03/13 02:35:40;;;;;;;50.10;34.23;;;;;;;5.47;61.16;99603.03;5062731;28;20029;-80
2021/03/13 02:38:10;;;;;;;49.37;33.33;;;;;;;4.40;61.12;99421.97;5062192;28;20032;-79
2021/03/13 02:40:38;;;;;;;46.63;31.07;;;;;;;5.57;61.41;99613.47;5070869;22;20056;-79
2021/03/13 02:43:07;;;;;;;41.43;30.87;;;;;;;5.46;61.13;99598.75;5041562;28;20032;-79
2021/03/13 02:45:36;;;;;;;46.40;32.30;;;;;;;5.42;61.12;99590.38;5058667;28;20029;-80
2021/03/13 02:48:06;;;;;;;45.03;30.77;;;;;;;5.60;61.13;99613.19;5057104;28;20028;-80
2021/03/13 02:50:33;;;;;;;47.73;31.80;;;;;;;4.91;61.10;99495.75;5058515;28;20032;-79
2021/03/13 02:53:00;;;;;;;48.07;32.67;;;;;;;4.86;60.88;99488.34;5039913;28;20025;-79
2021/03/13 02:55:27;;;;;;;45.60;32.47;;;;;;;4.33;60.95;99404.38;5039662;28;20024;-82
2021/03/13 02:57:59;;;;;;;43.70;30.33;;;;;;;4.74;60.73;99466.78;5058578;28;20032;-77
2021/03/13 03:00:27;;;;;;;41.60;30.67;;;;;;;5.02;60.52;99508.66;5064415;22;20021;-80
2021/03/13 03:02:55;;;;;;;43.70;29.00;;;;;;;5.70;60.75;99613.94;5039668;28;20028;-78
2021/03/13 03:05:23;;;;;;;40.70;28.30;;;;;;;5.71;60.80;99618.22;5058919;28;20017;-76
2021/03/13 03:07:51;;;;;;;40.03;29.17;;;;;;;5.71;60.87;99619.06;5059058;28;20021;-77
2021/03/13 03:10:19;;;;;;;38.07;26.80;;;;;;;5.08;60.60;99506.28;5056599;28;20033;-77
2021/03/13 03:12:47;;;;;;;40.37;28.17;;;;;;;5.75;60.64;99603.88;5056414;28;20024;-79
2021/03/13 03:15:14;;;;;;;39.17;26.77;;;;;;;5.72;60.78;99606.78;5056669;28;20041;-77
2021/03/13 03:17:40;;;;;;;38.33;27.93;;;;;;;5.64;60.86;99589.16;5058219;28;20481;-78
2021/03/13 03:20:08;;;;;;;42.10;29.00;;;;;;;5.67;60.46;99580.19;5040237;28;20116;-77
2021/03/13 03:22:36;;;;;;;42.40;29.17;;;;;;;5.75;60.78;99599.44;5056844;28;20028;-77
2021/03/13 03:25:03;;;;;;;38.53;28.03;;;;;;;5.74;60.62;99599.59;5055923;28;20032;-78
2021/03/13 03:27:29;;;;;;;41.13;29.00;;;;;;;5.09;60.41;99491.41;5056495;28;20024;-78
2021/03/13 03:29:54;;;;;;;41.43;28.73;;;;;;;5.36;60.80;99549.06;5040140;28;20112;-79
2021/03/13 03:32:20;;;;;;;44.50;29.63;;;;;;;5.10;60.62;99496.50;5057777;28;20411;-77
2021/03/13 03:34:45;;;;;;;40.83;28.93;;;;;;;5.61;60.83;99589.47;5056574;28;20029;-78
2021/03/13 03:37:11;;;;;;;38.03;27.70;;;;;;;5.71;61.14;99611.19;5057007;28;20029;-78
2021/03/13 03:39:36;;;;;;;39.80;28.37;;;;;;;5.72;60.67;99599.75;5063355;22;20124;-78
2021/03/13 03:42:03;;;;;;;49.07;32.13;;;;;;;5.51;60.93;99557.25;5037920;28;20029;-78
2021/03/13 03:44:36;;;;;;;54.67;33.87;;;;;;;5.73;61.22;99617.09;5037669;28;20036;-78
2021/03/13 03:47:04;;;;;;;57.40;38.73;;;;;;;5.77;61.08;99604.53;5039523;28;20053;-77
2021/03/13 03:49:32;;;;;;;55.33;35.10;;;;;;;4.88;60.82;99459.44;5040202;28;20055;-79
2021/03/13 03:51:59;;;;;;;52.30;36.10;;;;;;;5.38;61.00;99538.44;5038066;28;20025;-79
2021/03/13 03:54:26;;;;;;;49.90;33.43;;;;;;;5.64;60.75;99562.97;5055168;28;20062;-79
2021/03/13 03:56:53;;;;;;;54.70;34.07;;;;;;;5.88;60.74;99595.66;5037401;28;20044;-79
2021/03/13 03:59:21;;;;;;;49.77;32.97;;;;;;;5.62;60.80;99559.69;5055155;28;20032;-79
2021/03/13 04:01:50;;;;;;;48.93;31.07;;;;;;;5.86;60.91;99580.09;5037638;28;20033;-79
2021/03/13 04:04:22;;;;;;;45.13;30.10;;;;;;;5.83;61.02;99571.69;5054995;28;20036;-79
2021/03/13 04:06:49;;;;;;;48.13;32.38;;;;;;;5.31;61.19;99495.47;5037494;28;20562;-79
2021/03/13 04:09:19;;;;;;;47.37;30.90;;;;;;;5.56;61.20;99528.84;5054960;28;20105;-79
2021/03/13 04:11:45;;;;;;;44.80;30.43;;;;;;;5.85;61.02;99577.59;5055189;28;20510;-79
2021/03/13 04:14:13;;;;;;;40.63;28.20;;;;;;;4.91;60.87;99427.75;5054814;28;20025;-79
2021/03/13 04:16:39;;;;;;;46.67;31.47;;;;;;;5.79;60.90;99557.25;5055387;28;20033;-79
2021/03/13 04:19:04;;;;;;;52.23;34.47;;;;;;;5.74;61.19;99549.81;5056954;28;20078;-79
2021/03/13 04:21:31;;;;;;;71.57;43.83;;;;;;;5.57;61.10;99548.81;5042950;28;20120;-80
2021/03/13 04:23:58;;;;;;;65.33;42.33;;;;;;;5.72;61.32;99570.94;5055259;28;20095;-79
2021/03/13 04:26:24;;;;;;;68.23;43.60;;;;;;;5.49;61.18;99542.66;5054764;28;20033;-82
2021/03/13 04:28:50;;;;;;;63.10;41.97;;;;;;;5.67;61.21;99567.09;5055084;28;20338;-81
2021/03/13 04:31:18;;;;;;;75.17;44.07;;;;;;;5.81;60.86;99571.84;5054924;28;20078;-79
2021/03/13 04:33:47;;;;;;;61.53;37.47;;;;;;;5.82;61.51;99573.50;5054826;28;20028;-80
2021/03/13 04:36:13;;;;;;;61.10;40.00;;;;;;;5.02;61.00;99444.06;5054696;28;20029;-79
2021/03/13 04:38:41;;;;;;;57.83;38.70;;;;;;;5.82;61.26;99597.06;5037114;28;20099;-80
2021/03/13 04:41:07;;;;;;;55.97;39.10;;;;;;;5.72;60.90;99586.66;5054717;28;20037;-81
2021/03/13 04:43:33;;;;;;;59.20;38.87;;;;;;;5.83;61.15;99613.63;5054683;28;20043;-82
2021/03/13 04:46:00;;;;;;;70.47;43.63;;;;;;;5.81;60.94;99598.03;5055767;28;20025;-80
2021/03/13 04:48:32;;;;;;;59.73;40.03;;;;;;;5.76;61.28;99597.66;5058724;28;20025;-80
2021/03/13 04:51:00;;;;;;;48.35;32.40;;;;;;;5.62;61.22;99585.88;5059352;28;20025;-79
2021/03/13 04:53:26;;;;;;;57.60;39.07;;;;;;;5.51;61.38;99557.25;5074324;28;20115;-78
2021/03/13 04:55:52;;;;;;;58.67;39.47;;;;;;;5.30;61.00;99527.88;5045013;28;20036;-79
2021/03/13 04:58:17;;;;;;;66.73;44.00;;;;;;;5.31;60.81;99524.28;5059078;28;20033;-79
2021/03/13 05:00:44;;;;;;;68.10;44.53;;;;;;;4.96;61.14;99483.06;5059354;28;20347;-79
2021/03/13 05:03:09;;;;;;;71.80;45.93;;;;;;;5.72;61.07;99599.75;5042710;28;20120;-78
2021/03/13 05:05:34;;;;;;;79.30;48.80;;;;;;;5.70;61.45;99603.47;5060380;28;20409;-81
2021/03/13 05:08:00;;;;;;;69.87;46.27;;;;;;;4.35;61.01;99385.00;5061083;28;20032;-81
2021/03/13 05:10:26;;;;;;;66.27;44.00;;;;;;;4.88;61.10;99456.81;5059662;28;20025;-79
2021/03/13 05:12:55;;;;;;;63.17;43.77;;;;;;;5.07;61.00;99488.94;5041401;28;20033;-79
2021/03/13 05:15:23;;;;;;;66.40;45.70;;;;;;;5.77;61.01;99611.56;5059152;28;20036;-79
2021/03/13 05:17:50;;;;;;;71.80;48.27;;;;;;;5.77;61.33;99603.72;5059625;28;20033;-79
2021/03/13 05:20:24;;;;;;;94.73;57.67;;;;;;;5.80;61.33;99611.28;5059685;28;20025;-79
2021/03/13 05:22:51;;;;;;;83.40;53.47;;;;;;;5.62;61.06;99585.03;5059758;28;20098;-79
2021/03/13 05:25:18;;;;;;;78.93;49.13;;;;;;;5.84;61.00;99604.78;5058111;28;20104;-79
2021/03/13 05:27:44;;;;;;;62.70;42.20;;;;;;;5.84;60.96;99607.41;5058452;28;20036;-80
2021/03/13 05:30:12;;;;;;;63.23;42.43;;;;;;;5.77;60.85;99595.84;5040668;28;20510;-81
2021/03/13 05:32:39;;;;;;;58.33;37.93;;;;;;;5.14;60.70;99493.59;5058099;28;20064;-80
2021/03/13 05:35:10;;;;;;;55.87;37.63;;;;;;;5.82;60.53;99591.81;5057921;28;20033;-80
2021/03/13 05:37:36;;;;;;;58.80;39.03;;;;;;;5.99;60.59;99608.63;5058207;28;20024;-79
2021/03/13 05:40:04;;;;;;;59.07;39.17;;;;;;;5.62;60.43;99543.13;5060757;28;20041;-78
2021/03/13 05:42:30;;;;;;;53.40;37.50;;;;;;;6.09;60.10;99609.38;5043184;28;20029;-80
2021/03/13 05:44:55;;;;;;;58.00;39.20;;;;;;;5.95;60.11;99583.69;5059764;28;20028;-77
2021/03/13 05:47:22;;;;;;;61.17;38.97;;;;;;;6.15;60.13;99600.94;5059608;28;20048;-76
2021/03/13 05:50:01;;;;;;;59.47;39.07;;;;;;;6.19;59.98;99609.31;5057859;28;20106;-76
2021/03/13 05:52:31;;;;;;;65.60;44.20;;;;;;;6.11;60.01;99589.09;5039917;28;20032;-77
2021/03/13 05:54:57;;;;;;;60.70;43.77;;;;;;;5.54;59.68;99496.72;5039786;28;20113;-78
2021/03/13 05:57:23;;;;;;;70.37;45.93;;;;;;;6.32;59.77;99626.34;5038614;28;20044;-80
2021/03/13 05:59:50;;;;;;;71.23;45.37;;;;;;;6.17;60.01;99606.84;5069517;28;20025;-78
2021/03/13 06:02:17;;;;;;;65.97;44.80;;;;;;;5.83;59.55;99548.94;5058031;28;20449;-79
2021/03/13 06:04:43;;;;;;;63.20;42.73;;;;;;;5.97;59.54;99552.91;5057490;28;20078;-76
2021/03/13 06:07:13;;;;;;;66.67;43.03;;;;;;;6.23;59.58;99580.03;5057442;28;20032;-80
2021/03/13 06:09:39;;;;;;;63.13;39.77;;;;;;;6.52;59.29;99626.19;5057503;28;20055;-79
2021/03/13 06:12:06;;;;;;;60.60;39.53;;;;;;;6.37;59.58;99607.53;5057171;28;20423;-80
2021/03/13 06:14:31;;;;;;;56.60;39.80;;;;;;;6.20;59.23;99592.63;5039185;28;20415;-80
2021/03/13 06:16:57;;;;;;;58.67;39.90;;;;;;;6.27;58.94;99610.22;5057085;28;20033;-78
2021/03/13 06:19:22;;;;;;;54.93;37.20;;;;;;;5.85;59.28;99554.03;5039077;28;20021;-78
2021/03/13 06:21:48;;;;;;;52.17;36.57;;;;;;;5.96;59.12;99586.16;5039173;28;20024;-83
2021/03/13 06:24:21;;;;;;;52.53;35.10;;;;;;;6.36;58.92;99651.28;5056732;28;20025;-79
2021/03/13 06:26:52;;;;;;;51.03;35.10;;;;;;;6.62;59.30;99676.78;5057104;28;20029;-82
2021/03/13 06:29:18;;;;;;;35.25;25.98;;;;;;;5.76;58.79;99545.25;5057120;28;20443;-81
2021/03/13 06:31:44;;;;;;;55.20;35.77;;;;;;;6.35;58.77;99636.53;5039054;28;20043;-78
2021/03/13 06:34:35;;;;;;;53.00;36.63;;;;;;;6.28;59.15;99616.28;5056394;28;20033;-81
2021/03/13 06:37:39;;;;;;;56.38;37.30;;;;;;;5.98;58.68;99565.03;5052940;28;20036;-82
2021/03/13 06:40:05;;;;;;;55.23;36.93;;;;;;;6.53;59.18;99675.88;4975902;28;20477;-80
2021/03/13 06:42:31;;;;;;;52.97;36.07;;;;;;;6.55;59.35;99673.94;4975898;28;20393;-79
2021/03/13 06:44:59;;;;;;;52.40;35.83;;;;;;;6.41;59.34;99679.69;5013518;28;20048;-81
2021/03/13 06:47:51;;;;;;;53.93;36.07;;;;;;;6.54;59.53;99676.69;5038725;28;20029;-81
2021/03/13 06:50:19;;;;;;;;;;;;;;;6.55;59.63;99673.09;5036505;28;20462;-81
2021/03/13 06:52:48;;;;;;;50.57;34.23;;;;;;;6.60;59.48;99686.59;5056321;28;20005;-81
2021/03/13 06:55:24;;;;;;;55.03;36.90;;;;;;;6.70;59.00;99679.50;5038370;28;20021;-81
2021/03/13 06:57:50;;;;;;;53.70;35.83;;;;;;;6.45;59.17;99627.75;5056357;28;20025;-80
2021/03/13 07:00:32;;;;;;;52.53;35.43;;;;;;;6.78;59.02;99671.72;5038572;28;20029;-79
2021/03/13 07:03:12;;;;;;;53.97;36.67;;;;;;;6.76;59.22;99642.19;5056486;28;20076;-80
2021/03/13 07:05:39;;;;;;;57.67;38.13;;;;;;;6.96;58.47;99666.44;5043441;28;20029;-79
2021/03/13 07:08:24;;;;;;;50.83;35.27;;;;;;;7.03;58.74;99671.91;5062047;28;20108;-79
2021/03/13 07:10:52;;;;;;;48.20;33.63;;;;;;;7.06;57.98;99676.88;5057162;28;20017;-84
2021/03/13 07:13:35;;;;;;;54.37;34.63;;;;;;;6.73;58.38;99618.03;5056263;28;20094;-82
2021/03/13 07:16:19;;;;;;;54.60;36.27;;;;;;;6.81;57.65;99631.22;5056088;28;20494;-80
2021/03/13 07:18:45;;;;;;;56.83;37.37;;;;;;;6.51;57.74;99575.53;5056020;28;20033;-83
2021/03/13 07:21:12;;;;;;;60.13;38.60;;;;;;;7.04;57.79;99678.81;5055763;28;20021;-79
2021/03/13 07:23:39;;;;;;;57.07;38.57;;;;;;;7.10;58.03;99675.59;5055902;28;20033;-82
2021/03/13 07:26:05;;;;;;;56.63;38.17;;;;;;;6.49;57.80;99580.09;5055954;28;20100;-82
2021/03/13 07:28:32;;;;;;;63.57;39.53;;;;;;;6.87;57.95;99631.44;5038126;28;20053;-80
2021/03/13 07:31:00;;;;;;;62.47;41.70;;;;;;;6.98;58.10;99640.88;5055826;28;20123;-82
2021/03/13 07:33:28;;;;;;;60.13;39.90;;;;;;;7.25;57.85;99668.81;5055540;28;20402;-82
2021/03/13 07:35:54;;;;;;;71.13;42.63;;;;;;;7.12;57.71;99629.00;5055655;28;20021;-82
2021/03/13 07:38:21;;;;;;;65.63;41.33;;;;;;;7.37;57.41;99664.13;5055506;28;20041;-81
2021/03/13 07:40:48;;;;;;;60.43;39.13;;;;;;;7.39;57.48;99652.47;5055696;28;20024;-81
2021/03/13 07:43:16;;;;;;;56.10;39.37;;;;;;;7.50;56.85;99667.19;5055524;28;20082;-81
2021/03/13 07:45:41;;;;;;;60.30;39.97;;;;;;;7.45;57.77;99672.91;5055734;28;20029;-81
2021/03/13 07:48:09;;;;;;;54.70;38.63;;;;;;;7.13;57.75;99620.13;5055640;28;20082;-80
2021/03/13 07:50:34;;;;;;;69.30;39.80;;;;;;;7.44;57.65;99637.09;5055486;28;20052;-83
2021/03/13 07:53:00;;;;;;;65.60;39.97;;;;;;;7.92;57.58;99673.31;5037984;28;20029;-84
2021/03/13 07:55:27;;;;;;;61.13;40.50;;;;;;;8.09;57.32;99695.25;5037519;28;20037;-84
2021/03/13 07:57:53;;;;;;;51.60;35.47;;;;;;;7.87;57.03;99624.81;5055770;28;20024;-84
2021/03/13 08:00:41;;;;;;;51.80;36.97;;;;;;;8.25;56.88;99663.75;5037542;28;20059;-80
2021/03/13 08:03:29;;;;;;;49.35;33.42;;;;;;;8.28;57.49;99660.00;5055682;28;20104;-80
2021/03/13 08:05:58;;;;;;;48.90;33.08;;;;;;;8.42;56.80;99651.50;5055394;28;20028;-83
2021/03/13 08:08:34;;;;;;;48.53;34.67;;;;;;;8.62;56.41;99654.66;5055309;28;20048;-81
2021/03/13 08:11:00;;;;;;;57.08;35.50;;;;;;;8.77;56.38;99650.38;5055524;28;20350;-83
2021/03/13 08:13:28;;;;;;;46.80;32.00;;;;;;;8.88;56.28;99655.34;5060422;28;20033;-81
2021/03/13 08:16:14;;;;;;;48.35;35.15;;;;;;;8.91;56.06;99644.47;5065458;22;20045;-78
2021/03/13 08:18:53;;;;;;;45.67;32.30;;;;;;;9.04;55.61;99657.16;5058610;28;20346;-78
2021/03/13 08:21:21;;;;;;;46.97;32.25;;;;;;;9.12;55.26;99654.53;5054775;28;20108;-78
2021/03/13 08:23:54;;;;;;;44.40;31.92;;;;;;;9.11;55.60;99646.78;5055205;28;20040;-80
2021/03/13 08:26:22;;;;;;;45.38;30.40;;;;;;;9.18;55.67;99656.50;5037361;28;20037;-78
2021/03/13 08:28:48;;;;;;;46.85;30.83;;;;;;;9.26;55.54;99646.94;5054946;28;20398;-81
2021/03/13 08:31:22;;;;;;;41.97;30.25;;;;;;;9.27;55.47;99646.78;5037123;28;20086;-80
2021/03/13 08:33:52;;;;;;;42.72;30.83;;;;;;;8.87;55.31;99585.22;5054955;28;20029;-78
2021/03/13 08:36:20;;;;;;;39.90;29.75;;;;;;;9.32;55.10;99662.91;5055103;28;20343;-81
2021/03/13 08:38:52;;;;;;;40.63;28.10;;;;;;;9.38;55.13;99662.22;5037493;28;20380;-81
2021/03/13 08:41:43;;;;;;;38.78;28.67;;;;;;;9.17;55.21;99628.50;5055057;28;20033;-79
2021/03/13 08:44:27;;;;;;;41.97;28.00;;;;;;;9.35;55.52;99659.09;5054938;28;20271;-80
2021/03/13 08:47:03;;;;;;;40.70;29.10;;;;;;;9.39;55.25;99650.72;5055321;28;20029;-80
2021/03/13 08:49:28;;;;;;;39.95;27.98;;;;;;;9.46;55.04;99651.69;5054859;28;20074;-80
2021/03/13 08:52:03;;;;;;;36.25;27.00;;;;;;;9.55;55.04;99648.03;5054783;28;20385;-79
2021/03/13 08:54:40;;;;;;;40.22;28.02;;;;;;;9.71;55.09;99643.72;5054612;28;20025;-79
2021/03/13 08:57:39;;;;;;;46.63;31.88;;;;;;;9.64;54.73;99637.47;5036773;28;20029;-81
2021/03/13 09:00:06;;;;;;;43.85;31.80;;;;;;;9.20;55.27;99567.59;5037143;28;20029;-80
2021/03/13 09:02:40;;;;;;;43.03;31.52;;;;;;;9.59;55.20;99611.59;5054569;28;20071;-80
2021/03/13 09:05:09;;;;;;;47.60;35.10;;;;;;;9.85;55.12;99630.66;5054760;28;20112;-81
2021/03/13 09:07:35;;;;;;;48.38;32.53;;;;;;;9.77;54.46;99604.31;5036988;28;20068;-82
2021/03/13 09:10:00;;;;;;;43.85;31.25;;;;;;;9.52;54.33;99545.56;5037074;28;20020;-80
2021/03/13 09:12:29;;;;;;;42.63;31.13;;;;;;;9.84;54.21;99549.91;5054836;28;20500;-81
2021/03/13 09:15:00;;;;;;;40.90;29.48;;;;;;;10.26;54.15;99596.19;5054436;28;20435;-79
2021/03/13 09:17:28;;;;;;;40.33;28.73;;;;;;;10.40;53.98;99603.38;5036626;28;20406;-80
2021/03/13 09:19:54;;;;;;;36.72;28.02;;;;;;;10.58;53.56;99604.91;5036854;28;20036;-78
2021/03/13 09:22:24;;;;;;;37.03;29.02;;;;;;;10.87;53.00;99588.31;5054023;28;20029;-78
2021/03/13 09:24:52;;;;;;;39.33;28.52;;;;;;;11.02;53.11;99591.81;5036865;28;20033;-79
2021/03/13 09:27:22;;;;;;;43.35;28.98;;;;;;;11.05;52.80;99597.56;5036546;28;20039;-77
2021/03/13 09:29:52;;;;;;;38.17;28.08;;;;;;;10.87;52.75;99552.16;5036488;28;20021;-76
2021/03/13 09:32:17;;;;;;;37.50;26.88;;;;;;;11.30;52.40;99590.22;5055426;28;20021;-76
2021/03/13 09:34:44;;;;;;;41.05;29.08;;;;;;;11.48;51.48;99586.41;5057674;28;20324;-77
2021/03/13 09:37:13;;;;;;;35.58;26.70;;;;;;;11.51;51.62;99592.16;5057742;28;20053;-77
2021/03/13 09:39:40;;;;;;;36.10;26.90;;;;;;;11.35;50.94;99555.31;5039955;28;20021;-77
2021/03/13 09:42:25;;;;;;;39.05;27.63;;;;;;;11.41;51.37;99562.53;5057605;28;20087;-77
2021/03/13 09:44:53;;;;;;;31.08;22.90;;;;;;;11.60;50.90;99591.06;5057405;28;20028;-77
2021/03/13 09:47:32;;;;;;;32.42;24.83;;;;;;;11.67;51.68;99599.06;5039495;28;20033;-77
2021/03/13 09:50:09;;;;;;;35.83;25.08;;;;;;;11.66;50.64;99578.91;5039721;28;20029;-77
2021/03/13 09:52:39;;;;;;;36.47;26.85;;;;;;;11.87;51.05;99576.38;5039596;28;20118;-78
2021/03/13 09:55:07;;;;;;;30.25;23.52;;;;;;;12.08;51.16;99596.78;5057364;28;20025;-77
2021/03/13 09:57:33;;;;;;;34.28;26.45;;;;;;;12.28;50.78;99591.72;5057064;28;20036;-78
2021/03/13 10:00:00;;;;;;;33.83;26.08;;;;;;;12.40;50.13;99609.56;5057191;28;20044;-77
2021/03/13 10:02:26;;;;;;;35.30;24.45;;;;;;;12.59;49.98;99586.09;5057029;28;20087;-77
2021/03/13 10:04:53;;;;;;;32.05;22.52;;;;;;;12.68;49.61;99583.16;5057131;28;20028;-76
2021/03/13 10:07:20;;;;;;;29.20;22.23;;;;;;;12.37;49.05;99543.75;5057064;28;20033;-77
2021/03/13 10:09:50;;;;;;;33.92;23.90;;;;;;;12.58;49.44;99573.88;5057354;28;20095;-77
2021/03/13 10:12:26;;;;;;;31.17;24.95;;;;;;;12.40;49.13;99569.03;5057046;28;20025;-78
2021/03/13 10:14:52;;;;;;;35.40;24.98;;;;;;;12.27;49.65;99558.31;5039063;28;20120;-77
2021/03/13 10:17:17;;;;;;;29.83;21.25;;;;;;;12.37;49.54;99570.22;5039214;28;20104;-78
2021/03/13 10:19:44;;;;;;;26.38;20.80;;;;;;;12.32;49.11;99561.19;5057010;28;20035;-76
2021/03/13 10:22:15;;;;;;;32.90;24.23;;;;;;;12.39;48.70;99549.66;5056788;28;20031;-77
2021/03/13 10:24:58;;;;;;;32.97;23.80;;;;;;;12.36;49.12;99518.28;5039336;28;20078;-77
2021/03/13 10:27:29;;;;;;;27.58;21.05;;;;;;;12.90;48.21;99569.88;5056622;28;20051;-77
2021/03/13 10:30:01;;;;;;;33.10;22.90;;;;;;;13.05;48.63;99565.31;5056711;28;20027;-77
2021/03/13 10:32:30;;;;;;;;;;;;;;;13.33;47.51;99581.22;5057257;28;20029;-78
2021/03/13 10:35:16;;;;;;;26.17;19.58;;;;;;;13.58;47.25;99560.38;5038929;28;19943;-77
2021/03/13 10:37:52;;;;;;;33.22;23.48;;;;;;;13.60;46.12;99513.25;5056469;28;20036;-77
2021/03/13 10:40:33;;;;;;;28.88;22.63;;;;;;;14.00;45.18;99554.00;5056574;28;20036;-77
2021/03/13 10:43:41;;;;;;;29.43;23.03;;;;;;;14.39;44.59;99563.09;5056823;28;20024;-77
2021/03/13 10:46:12;;;;;;;28.77;22.08;;;;;;;14.52;45.70;99542.72;5031552;28;20290;-77
2021/03/13 10:49:00;;;;;;;31.42;24.35;;;;;;;14.39;44.47;99463.00;5056452;28;20052;-76
2021/03/13 10:51:27;;;;;;;29.50;21.90;;;;;;;15.28;44.33;99560.88;5038730;28;20387;-77
2021/03/13 10:53:54;;;;;;;29.05;21.60;;;;;;;15.34;43.45;99525.47;5056527;28;20029;-76
2021/03/13 10:56:20;;;;;;;30.45;21.90;;;;;;;15.51;43.20;99557.75;5056412;28;20029;-76
2021/03/13 10:58:46;;;;;;;26.58;21.52;;;;;;;15.45;43.01;99543.44;5056212;28;20025;-77
2021/03/13 11:01:12;;;;;;;28.15;19.73;;;;;;;15.22;43.19;99516.50;5038766;28;20033;-77
2021/03/13 11:03:37;;;;;;;27.65;21.02;;;;;;;15.33;43.01;99537.13;5056337;28;20032;-77
2021/03/13 11:06:03;;;;;;;29.45;18.75;;;;;;;14.81;43.21;99474.22;5056350;28;20033;-77
2021/03/13 11:08:29;;;;;;;26.10;19.20;;;;;;;15.03;43.22;99536.78;5056282;28;20043;-77
2021/03/13 11:10:56;;;;;;;26.70;20.27;;;;;;;14.89;43.66;99535.19;5056335;28;20055;-77
2021/03/13 11:13:22;;;;;;;23.05;18.88;;;;;;;14.79;43.65;99538.22;5056007;28;20021;-77
2021/03/13 11:15:49;;;;;;;25.35;19.17;;;;;;;14.29;43.65;99474.03;5055769;28;20047;-77
2021/03/13 11:18:14;;;;;;;26.75;20.13;;;;;;;14.56;44.05;99524.53;5055751;28;20029;-78
2021/03/13 11:20:41;;;;;;;27.50;18.63;;;;;;;14.24;44.17;99486.28;5055904;28;20025;-77
2021/03/13 11:23:07;;;;;;;26.70;20.50;;;;;;;14.51;44.12;99511.03;5055839;28;20036;-77
2021/03/13 11:25:32;;;;;;;26.02;20.52;;;;;;;14.60;43.95;99523.09;5038501;28;20025;-78
2021/03/13 11:27:58;;;;;;;28.55;21.40;;;;;;;14.59;44.21;99508.19;5038329;28;20032;-78
2021/03/13 11:30:24;;;;;;;26.33;19.95;;;;;;;14.58;44.12;99510.00;5055550;28;20025;-76
2021/03/13 11:32:49;;;;;;;29.60;22.27;;;;;;;14.49;44.16;99490.00;5038062;28;20108;-77
2021/03/13 11:35:15;;;;;;;29.10;21.73;;;;;;;14.72;44.01;99499.38;5041952;28;20092;-77